Fleming Neon, Kentucky
Current Conditions -  °F | °C
As of 6:55 PM on Saturday 25 Oct 2014 (Local Time) from KLNP Reporting Station
Broken Clouds Broken Clouds  
Wind Chill: 59°   Ceiling: 2800
Heat Index: 59°   Visibility: 10mi
Dew Point: 45°   Wind: 8mph
Humidity: 59%   Direction: 230°SW
Pressure: 30.02"   Gusts: NA
Location:  37.216°N, 82.7112°W
Report Text: KLNP 252255Z AUTO 23007KT 10SM BKN028 BKN036 15/07 A3002 RMK AO2
Loading
Personal Weather Stations






























Interactive Weather Map
Tropical Storm Tracking
New forecast layout! Learn more

10-Day Weather Forecast

Advertisements
Track Severe Weather on mobile